Huvudsida
METAR-TAF:

METAR-TAF

Flygplatser :

Ventspils lidosta

Ventspils, Lettland

latitud: 57-21-28N, longitud: 021-32-39E, höjd: 6 m

Aktuellt väderrapport

Denna rapport gjordes för 16 minuter sedan, klockan 18:20 UTC
Vind 5 kt från ost/nordost
Temperatur 1°C
Fuktighet 80%
Tryck 1029 hPa
Sikt 10 km eller mer
Mulet på en höjd av 2900 ft

METAR: EVVA 131820Z AUTO 06005KT 9999 OVC029 01/M02 Q1029

Tid: 20:36 (18:36 UTC)


TAF: saknas

Aktuella väderrapporter och prognoser från 4000 flygplatser (METAR- och TAF-rapporter).

De tillgängliga stationerna syns som gula och röda prickar på kartan.

För musen över prickarna för att se namnen på stationerna.

Klicka sedan för att få väderrapporter och prognoser.

För att ändra kartan: Klicka på de gröna knapparna med ett svart kors på för att zooma in; den gröna knappen med ett streck på för att zooma ut; eller på de gröna pilarna för angränsande kartor.


METAR-TAF: